sensor_id;sensor_type;location;lat;lon;timestamp;P1;durP1;ratioP1;P2;durP2;ratioP2
30287;SDS011;17103;48.316;11.558;2024-03-08T00:00:07;8.38;;;5.50;;
30287;SDS011;17103;48.316;11.558;2024-03-08T00:02:40;9.35;;;6.00;;
30287;SDS011;17103;48.316;11.558;2024-03-08T00:05:07;10.63;;;6.47;;
30287;SDS011;17103;48.316;11.558;2024-03-08T00:07:36;8.85;;;6.20;;
30287;SDS011;17103;48.316;11.558;2024-03-08T00:10:04;9.20;;;6.05;;
30287;SDS011;17103;48.316;11.558;2024-03-08T00:12:43;7.53;;;5.20;;
30287;SDS011;17103;48.316;11.558;2024-03-08T00:15:16;8.85;;;6.68;;
30287;SDS011;17103;48.316;11.558;2024-03-08T00:20:09;9.00;;;5.80;;
30287;SDS011;17103;48.316;11.558;2024-03-08T00:22:38;8.98;;;6.07;;
30287;SDS011;17103;48.316;11.558;2024-03-08T00:25:04;8.38;;;5.53;;
30287;SDS011;17103;48.316;11.558;2024-03-08T00:27:31;11.93;;;7.55;;
30287;SDS011;17103;48.316;11.558;2024-03-08T00:29:57;8.18;;;5.63;;
30287;SDS011;17103;48.316;11.558;2024-03-08T00:32:23;10.65;;;6.90;;
30287;SDS011;17103;48.316;11.558;2024-03-08T00:34:49;9.20;;;6.68;;
30287;SDS011;17103;48.316;11.558;2024-03-08T00:37:17;8.10;;;5.88;;
30287;SDS011;17103;48.316;11.558;2024-03-08T00:39:42;8.43;;;6.10;;
30287;SDS011;17103;48.316;11.558;2024-03-08T00:42:08;9.35;;;6.25;;
30287;SDS011;17103;48.316;11.558;2024-03-08T00:44:34;7.85;;;5.72;;
30287;SDS011;17103;48.316;11.558;2024-03-08T00:46:59;11.07;;;6.45;;
30287;SDS011;17103;48.316;11.558;2024-03-08T00:49:25;10.90;;;6.53;;
30287;SDS011;17103;48.316;11.558;2024-03-08T00:51:51;10.98;;;6.28;;
30287;SDS011;17103;48.316;11.558;2024-03-08T00:54:16;9.40;;;5.82;;
30287;SDS011;17103;48.316;11.558;2024-03-08T00:56:42;11.55;;;7.05;;
30287;SDS011;17103;48.316;11.558;2024-03-08T00:59:07;7.97;;;5.55;;
30287;SDS011;17103;48.316;11.558;2024-03-08T01:01:33;9.95;;;6.68;;
30287;SDS011;17103;48.316;11.558;2024-03-08T01:03:59;9.50;;;6.05;;
30287;SDS011;17103;48.316;11.558;2024-03-08T01:06:24;8.55;;;5.97;;
30287;SDS011;17103;48.316;11.558;2024-03-08T01:08:50;10.45;;;6.70;;
30287;SDS011;17103;48.316;11.558;2024-03-08T01:11:18;9.68;;;6.43;;
30287;SDS011;17103;48.316;11.558;2024-03-08T01:13:44;9.57;;;6.38;;
30287;SDS011;17103;48.316;11.558;2024-03-08T01:16:12;9.52;;;6.88;;
30287;SDS011;17103;48.316;11.558;2024-03-08T01:18:38;8.00;;;5.53;;
30287;SDS011;17103;48.316;11.558;2024-03-08T01:21:03;8.13;;;6.07;;
30287;SDS011;17103;48.316;11.558;2024-03-08T01:23:29;8.88;;;6.28;;
30287;SDS011;17103;48.316;11.558;2024-03-08T01:25:55;9.95;;;7.00;;
30287;SDS011;17103;48.316;11.558;2024-03-08T01:28:23;10.20;;;6.45;;
30287;SDS011;17103;48.316;11.558;2024-03-08T01:30:49;8.73;;;6.43;;
30287;SDS011;17103;48.316;11.558;2024-03-08T01:33:20;12.85;;;6.47;;
30287;SDS011;17103;48.316;11.558;2024-03-08T01:35:48;10.18;;;6.05;;
30287;SDS011;17103;48.316;11.558;2024-03-08T01:38:13;10.13;;;6.25;;
30287;SDS011;17103;48.316;11.558;2024-03-08T01:40:39;9.60;;;6.80;;
30287;SDS011;17103;48.316;11.558;2024-03-08T01:43:21;10.73;;;6.22;;
30287;SDS011;17103;48.316;11.558;2024-03-08T01:45:52;9.20;;;7.35;;
30287;SDS011;17103;48.316;11.558;2024-03-08T01:48:18;11.38;;;7.05;;
30287;SDS011;17103;48.316;11.558;2024-03-08T01:50:49;9.60;;;6.65;;
30287;SDS011;17103;48.316;11.558;2024-03-08T01:53:15;11.63;;;7.00;;
30287;SDS011;17103;48.316;11.558;2024-03-08T01:55:42;10.52;;;6.15;;
30287;SDS011;17103;48.316;11.558;2024-03-08T01:58:11;10.35;;;7.30;;
30287;SDS011;17103;48.316;11.558;2024-03-08T02:00:40;9.50;;;5.85;;
30287;SDS011;17103;48.316;11.558;2024-03-08T02:03:08;11.80;;;6.85;;
30287;SDS011;17103;48.316;11.558;2024-03-08T02:05:35;11.85;;;7.03;;
30287;SDS011;17103;48.316;11.558;2024-03-08T02:08:01;12.32;;;8.02;;
30287;SDS011;17103;48.316;11.558;2024-03-08T02:10:28;10.93;;;6.93;;
30287;SDS011;17103;48.316;11.558;2024-03-08T02:12:53;10.55;;;7.60;;
30287;SDS011;17103;48.316;11.558;2024-03-08T02:15:20;11.20;;;7.30;;
30287;SDS011;17103;48.316;11.558;2024-03-08T02:17:46;11.25;;;7.80;;
30287;SDS011;17103;48.316;11.558;2024-03-08T02:20:12;9.80;;;6.57;;
30287;SDS011;17103;48.316;11.558;2024-03-08T02:22:38;12.35;;;6.95;;
30287;SDS011;17103;48.316;11.558;2024-03-08T02:25:04;10.45;;;6.90;;
30287;SDS011;17103;48.316;11.558;2024-03-08T02:27:30;10.07;;;7.35;;
30287;SDS011;17103;48.316;11.558;2024-03-08T02:29:56;12.27;;;8.43;;
30287;SDS011;17103;48.316;11.558;2024-03-08T02:32:22;11.35;;;7.22;;
30287;SDS011;17103;48.316;11.558;2024-03-08T02:34:49;10.32;;;6.70;;
30287;SDS011;17103;48.316;11.558;2024-03-08T02:37:15;11.07;;;8.20;;
30287;SDS011;17103;48.316;11.558;2024-03-08T02:39:41;10.70;;;7.28;;
30287;SDS011;17103;48.316;11.558;2024-03-08T02:42:07;10.18;;;6.82;;
30287;SDS011;17103;48.316;11.558;2024-03-08T02:44:32;10.52;;;6.63;;
30287;SDS011;17103;48.316;11.558;2024-03-08T02:46:58;10.07;;;7.30;;
30287;SDS011;17103;48.316;11.558;2024-03-08T02:49:25;10.73;;;6.90;;
30287;SDS011;17103;48.316;11.558;2024-03-08T02:51:52;10.73;;;7.47;;
30287;SDS011;17103;48.316;11.558;2024-03-08T02:54:18;12.75;;;7.95;;
30287;SDS011;17103;48.316;11.558;2024-03-08T02:56:44;12.35;;;7.72;;
30287;SDS011;17103;48.316;11.558;2024-03-08T02:59:15;11.80;;;7.93;;
30287;SDS011;17103;48.316;11.558;2024-03-08T03:01:42;12.65;;;8.70;;
30287;SDS011;17103;48.316;11.558;2024-03-08T03:04:08;11.60;;;7.20;;
30287;SDS011;17103;48.316;11.558;2024-03-08T03:06:34;12.38;;;8.02;;
30287;SDS011;17103;48.316;11.558;2024-03-08T03:09:00;10.20;;;7.53;;
30287;SDS011;17103;48.316;11.558;2024-03-08T03:11:26;13.98;;;7.18;;
30287;SDS011;17103;48.316;11.558;2024-03-08T03:13:52;10.90;;;8.10;;
30287;SDS011;17103;48.316;11.558;2024-03-08T03:16:21;12.30;;;7.68;;
30287;SDS011;17103;48.316;11.558;2024-03-08T03:18:47;10.20;;;6.78;;
30287;SDS011;17103;48.316;11.558;2024-03-08T03:21:13;11.52;;;7.93;;
30287;SDS011;17103;48.316;11.558;2024-03-08T03:23:39;11.18;;;7.13;;
30287;SDS011;17103;48.316;11.558;2024-03-08T03:26:06;10.43;;;7.07;;
30287;SDS011;17103;48.316;11.558;2024-03-08T03:28:38;11.35;;;7.20;;
30287;SDS011;17103;48.316;11.558;2024-03-08T03:31:13;8.57;;;5.55;;
30287;SDS011;17103;48.316;11.558;2024-03-08T03:33:49;10.63;;;6.72;;
30287;SDS011;17103;48.316;11.558;2024-03-08T03:36:16;10.45;;;6.70;;
30287;SDS011;17103;48.316;11.558;2024-03-08T03:38:43;11.80;;;6.57;;
30287;SDS011;17103;48.316;11.558;2024-03-08T03:41:08;9.93;;;6.55;;
30287;SDS011;17103;48.316;11.558;2024-03-08T03:43:39;11.68;;;7.18;;
30287;SDS011;17103;48.316;11.558;2024-03-08T03:46:07;10.32;;;7.22;;
30287;SDS011;17103;48.316;11.558;2024-03-08T03:48:35;11.18;;;6.80;;
30287;SDS011;17103;48.316;11.558;2024-03-08T03:51:01;12.93;;;8.35;;
30287;SDS011;17103;48.316;11.558;2024-03-08T03:53:27;12.30;;;8.55;;
30287;SDS011;17103;48.316;11.558;2024-03-08T03:55:52;11.40;;;7.70;;
30287;SDS011;17103;48.316;11.558;2024-03-08T03:58:18;11.00;;;7.30;;
30287;SDS011;17103;48.316;11.558;2024-03-08T04:00:47;11.48;;;7.65;;
30287;SDS011;17103;48.316;11.558;2024-03-08T04:03:13;11.45;;;6.88;;
30287;SDS011;17103;48.316;11.558;2024-03-08T04:05:39;12.25;;;8.05;;
30287;SDS011;17103;48.316;11.558;2024-03-08T04:08:05;11.65;;;8.38;;
30287;SDS011;17103;48.316;11.558;2024-03-08T04:10:31;10.77;;;7.53;;
30287;SDS011;17103;48.316;11.558;2024-03-08T04:12:57;15.65;;;9.98;;
30287;SDS011;17103;48.316;11.558;2024-03-08T04:15:22;15.52;;;8.88;;
30287;SDS011;17103;48.316;11.558;2024-03-08T04:17:49;15.32;;;9.75;;
30287;SDS011;17103;48.316;11.558;2024-03-08T04:20:15;16.50;;;10.70;;
30287;SDS011;17103;48.316;11.558;2024-03-08T04:22:42;17.67;;;10.63;;
30287;SDS011;17103;48.316;11.558;2024-03-08T04:25:09;17.50;;;10.80;;
30287;SDS011;17103;48.316;11.558;2024-03-08T04:27:35;17.55;;;10.13;;
30287;SDS011;17103;48.316;11.558;2024-03-08T04:30:01;18.10;;;10.30;;
30287;SDS011;17103;48.316;11.558;2024-03-08T04:32:27;17.80;;;10.95;;
30287;SDS011;17103;48.316;11.558;2024-03-08T04:34:57;17.60;;;10.93;;
30287;SDS011;17103;48.316;11.558;2024-03-08T04:37:22;18.48;;;10.85;;
30287;SDS011;17103;48.316;11.558;2024-03-08T04:39:50;18.83;;;11.85;;
30287;SDS011;17103;48.316;11.558;2024-03-08T04:42:15;17.10;;;10.35;;
30287;SDS011;17103;48.316;11.558;2024-03-08T04:44:43;20.67;;;11.98;;
30287;SDS011;17103;48.316;11.558;2024-03-08T04:47:08;19.98;;;10.75;;
30287;SDS011;17103;48.316;11.558;2024-03-08T04:49:36;16.77;;;10.98;;
30287;SDS011;17103;48.316;11.558;2024-03-08T04:52:02;21.55;;;12.77;;
30287;SDS011;17103;48.316;11.558;2024-03-08T04:54:28;21.27;;;12.73;;
30287;SDS011;17103;48.316;11.558;2024-03-08T04:56:54;18.30;;;12.05;;
30287;SDS011;17103;48.316;11.558;2024-03-08T04:59:20;21.02;;;12.57;;
30287;SDS011;17103;48.316;11.558;2024-03-08T05:01:46;23.25;;;14.88;;
30287;SDS011;17103;48.316;11.558;2024-03-08T05:04:12;21.13;;;12.25;;
30287;SDS011;17103;48.316;11.558;2024-03-08T05:06:39;21.42;;;11.80;;
30287;SDS011;17103;48.316;11.558;2024-03-08T05:09:04;22.77;;;13.43;;
30287;SDS011;17103;48.316;11.558;2024-03-08T05:11:38;19.20;;;11.48;;
30287;SDS011;17103;48.316;11.558;2024-03-08T05:14:05;24.88;;;13.75;;
30287;SDS011;17103;48.316;11.558;2024-03-08T05:16:30;24.67;;;14.38;;
30287;SDS011;17103;48.316;11.558;2024-03-08T05:18:56;23.15;;;14.23;;
30287;SDS011;17103;48.316;11.558;2024-03-08T05:21:22;25.90;;;14.32;;
30287;SDS011;17103;48.316;11.558;2024-03-08T05:23:48;21.73;;;12.50;;
30287;SDS011;17103;48.316;11.558;2024-03-08T05:26:15;26.83;;;15.65;;
30287;SDS011;17103;48.316;11.558;2024-03-08T05:28:41;26.63;;;16.02;;
30287;SDS011;17103;48.316;11.558;2024-03-08T05:31:07;24.77;;;13.07;;
30287;SDS011;17103;48.316;11.558;2024-03-08T05:33:33;23.05;;;13.00;;
30287;SDS011;17103;48.316;11.558;2024-03-08T05:36:00;25.42;;;13.40;;
30287;SDS011;17103;48.316;11.558;2024-03-08T05:38:28;25.52;;;15.60;;
30287;SDS011;17103;48.316;11.558;2024-03-08T05:40:55;21.60;;;12.77;;
30287;SDS011;17103;48.316;11.558;2024-03-08T05:43:21;23.45;;;13.48;;
30287;SDS011;17103;48.316;11.558;2024-03-08T05:45:46;26.92;;;14.85;;
30287;SDS011;17103;48.316;11.558;2024-03-08T05:48:13;29.17;;;15.98;;
30287;SDS011;17103;48.316;11.558;2024-03-08T05:50:39;26.00;;;14.55;;
30287;SDS011;17103;48.316;11.558;2024-03-08T05:53:04;27.52;;;15.65;;
30287;SDS011;17103;48.316;11.558;2024-03-08T05:55:34;25.60;;;15.05;;
30287;SDS011;17103;48.316;11.558;2024-03-08T05:58:00;27.13;;;15.43;;
30287;SDS011;17103;48.316;11.558;2024-03-08T06:00:26;26.20;;;15.18;;
30287;SDS011;17103;48.316;11.558;2024-03-08T06:02:52;28.52;;;16.63;;
30287;SDS011;17103;48.316;11.558;2024-03-08T06:05:18;26.90;;;15.77;;
30287;SDS011;17103;48.316;11.558;2024-03-08T06:07:44;25.92;;;15.25;;
30287;SDS011;17103;48.316;11.558;2024-03-08T06:10:10;28.85;;;16.27;;
30287;SDS011;17103;48.316;11.558;2024-03-08T06:12:37;25.08;;;15.38;;
30287;SDS011;17103;48.316;11.558;2024-03-08T06:15:07;28.80;;;15.90;;
30287;SDS011;17103;48.316;11.558;2024-03-08T06:17:39;24.15;;;14.48;;
30287;SDS011;17103;48.316;11.558;2024-03-08T06:20:07;23.58;;;13.57;;
30287;SDS011;17103;48.316;11.558;2024-03-08T06:22:38;26.17;;;15.23;;
30287;SDS011;17103;48.316;11.558;2024-03-08T06:25:07;24.13;;;14.10;;
30287;SDS011;17103;48.316;11.558;2024-03-08T06:27:33;26.80;;;15.82;;
30287;SDS011;17103;48.316;11.558;2024-03-08T06:30:03;23.30;;;14.52;;
30287;SDS011;17103;48.316;11.558;2024-03-08T06:32:30;23.33;;;14.27;;
30287;SDS011;17103;48.316;11.558;2024-03-08T06:34:56;22.13;;;14.27;;
30287;SDS011;17103;48.316;11.558;2024-03-08T06:37:21;29.25;;;17.50;;
30287;SDS011;17103;48.316;11.558;2024-03-08T06:39:52;23.70;;;14.25;;
30287;SDS011;17103;48.316;11.558;2024-03-08T06:42:19;30.65;;;16.38;;
30287;SDS011;17103;48.316;11.558;2024-03-08T06:44:46;23.60;;;15.02;;
30287;SDS011;17103;48.316;11.558;2024-03-08T06:47:15;25.80;;;15.15;;
30287;SDS011;17103;48.316;11.558;2024-03-08T06:49:42;24.88;;;14.02;;
30287;SDS011;17103;48.316;11.558;2024-03-08T06:52:09;26.95;;;15.70;;
30287;SDS011;17103;48.316;11.558;2024-03-08T06:54:35;27.58;;;16.73;;
30287;SDS011;17103;48.316;11.558;2024-03-08T06:57:04;30.27;;;16.40;;
30287;SDS011;17103;48.316;11.558;2024-03-08T06:59:30;30.25;;;17.13;;
30287;SDS011;17103;48.316;11.558;2024-03-08T07:01:57;27.10;;;16.70;;
30287;SDS011;17103;48.316;11.558;2024-03-08T07:04:24;27.33;;;16.35;;
30287;SDS011;17103;48.316;11.558;2024-03-08T07:06:58;28.63;;;17.77;;
30287;SDS011;17103;48.316;11.558;2024-03-08T07:09:26;30.08;;;18.50;;
30287;SDS011;17103;48.316;11.558;2024-03-08T07:11:51;30.40;;;18.10;;
30287;SDS011;17103;48.316;11.558;2024-03-08T07:14:22;33.25;;;17.70;;
30287;SDS011;17103;48.316;11.558;2024-03-08T07:16:49;28.52;;;16.67;;
30287;SDS011;17103;48.316;11.558;2024-03-08T07:19:15;28.52;;;17.63;;
30287;SDS011;17103;48.316;11.558;2024-03-08T07:21:42;33.20;;;19.05;;
30287;SDS011;17103;48.316;11.558;2024-03-08T07:24:09;29.17;;;16.67;;
30287;SDS011;17103;48.316;11.558;2024-03-08T07:26:52;29.70;;;17.17;;
30287;SDS011;17103;48.316;11.558;2024-03-08T07:29:19;32.40;;;17.27;;
30287;SDS011;17103;48.316;11.558;2024-03-08T07:31:44;33.88;;;18.50;;
30287;SDS011;17103;48.316;11.558;2024-03-08T07:34:16;28.63;;;16.50;;
30287;SDS011;17103;48.316;11.558;2024-03-08T07:36:42;28.92;;;17.02;;
30287;SDS011;17103;48.316;11.558;2024-03-08T07:39:07;30.65;;;18.45;;
30287;SDS011;17103;48.316;11.558;2024-03-08T07:41:37;28.40;;;17.77;;
30287;SDS011;17103;48.316;11.558;2024-03-08T07:44:05;29.20;;;16.48;;
30287;SDS011;17103;48.316;11.558;2024-03-08T07:46:34;30.50;;;16.95;;
30287;SDS011;17103;48.316;11.558;2024-03-08T07:49:01;30.23;;;16.23;;
30287;SDS011;17103;48.316;11.558;2024-03-08T07:51:28;28.50;;;17.52;;
30287;SDS011;17103;48.316;11.558;2024-03-08T07:53:53;33.25;;;18.13;;
30287;SDS011;17103;48.316;11.558;2024-03-08T07:56:20;29.77;;;16.75;;
30287;SDS011;17103;48.316;11.558;2024-03-08T07:58:47;32.17;;;17.83;;
30287;SDS011;17103;48.316;11.558;2024-03-08T08:01:17;28.20;;;16.67;;
30287;SDS011;17103;48.316;11.558;2024-03-08T08:03:43;28.70;;;16.60;;
30287;SDS011;17103;48.316;11.558;2024-03-08T08:06:08;28.58;;;17.17;;
30287;SDS011;17103;48.316;11.558;2024-03-08T08:08:35;31.02;;;17.02;;
30287;SDS011;17103;48.316;11.558;2024-03-08T08:11:01;28.77;;;17.10;;
30287;SDS011;17103;48.316;11.558;2024-03-08T08:13:27;28.15;;;16.50;;
30287;SDS011;17103;48.316;11.558;2024-03-08T08:15:57;25.50;;;15.98;;
30287;SDS011;17103;48.316;11.558;2024-03-08T08:18:23;31.77;;;17.52;;
30287;SDS011;17103;48.316;11.558;2024-03-08T08:20:50;29.15;;;17.48;;
30287;SDS011;17103;48.316;11.558;2024-03-08T08:23:17;33.33;;;18.92;;
30287;SDS011;17103;48.316;11.558;2024-03-08T08:25:45;26.45;;;16.83;;
30287;SDS011;17103;48.316;11.558;2024-03-08T08:28:11;28.52;;;17.27;;
30287;SDS011;17103;48.316;11.558;2024-03-08T08:30:37;33.20;;;17.30;;
30287;SDS011;17103;48.316;11.558;2024-03-08T08:33:03;28.33;;;16.85;;
30287;SDS011;17103;48.316;11.558;2024-03-08T08:35:30;29.08;;;17.90;;
30287;SDS011;17103;48.316;11.558;2024-03-08T08:37:58;29.33;;;16.33;;
30287;SDS011;17103;48.316;11.558;2024-03-08T08:40:24;28.08;;;15.95;;
30287;SDS011;17103;48.316;11.558;2024-03-08T08:42:51;28.00;;;16.83;;
30287;SDS011;17103;48.316;11.558;2024-03-08T08:45:18;28.48;;;17.27;;
30287;SDS011;17103;48.316;11.558;2024-03-08T08:47:44;27.92;;;16.02;;
30287;SDS011;17103;48.316;11.558;2024-03-08T08:50:10;27.98;;;15.82;;
30287;SDS011;17103;48.316;11.558;2024-03-08T08:52:39;29.42;;;16.42;;
30287;SDS011;17103;48.316;11.558;2024-03-08T08:55:05;26.15;;;15.48;;
30287;SDS011;17103;48.316;11.558;2024-03-08T08:57:31;30.33;;;17.73;;
30287;SDS011;17103;48.316;11.558;2024-03-08T09:00:01;28.80;;;16.63;;
30287;SDS011;17103;48.316;11.558;2024-03-08T09:02:27;27.02;;;15.68;;
30287;SDS011;17103;48.316;11.558;2024-03-08T09:04:52;26.55;;;16.23;;
30287;SDS011;17103;48.316;11.558;2024-03-08T09:07:18;25.10;;;15.07;;
30287;SDS011;17103;48.316;11.558;2024-03-08T09:09:44;26.30;;;15.98;;
30287;SDS011;17103;48.316;11.558;2024-03-08T09:12:10;27.30;;;15.73;;
30287;SDS011;17103;48.316;11.558;2024-03-08T09:14:39;17.40;;;11.25;;
30287;SDS011;17103;48.316;11.558;2024-03-08T09:17:06;23.13;;;14.27;;
30287;SDS011;17103;48.316;11.558;2024-03-08T09:19:33;25.02;;;15.35;;
30287;SDS011;17103;48.316;11.558;2024-03-08T09:22:02;23.23;;;13.93;;
30287;SDS011;17103;48.316;11.558;2024-03-08T09:24:31;26.25;;;14.30;;
30287;SDS011;17103;48.316;11.558;2024-03-08T09:26:57;24.05;;;13.90;;
30287;SDS011;17103;48.316;11.558;2024-03-08T09:29:25;26.60;;;16.77;;
30287;SDS011;17103;48.316;11.558;2024-03-08T09:31:51;24.60;;;14.32;;
30287;SDS011;17103;48.316;11.558;2024-03-08T09:34:17;23.63;;;14.73;;
30287;SDS011;17103;48.316;11.558;2024-03-08T09:36:44;24.17;;;15.45;;
30287;SDS011;17103;48.316;11.558;2024-03-08T09:39:09;24.02;;;14.38;;
30287;SDS011;17103;48.316;11.558;2024-03-08T09:41:41;25.20;;;15.55;;
30287;SDS011;17103;48.316;11.558;2024-03-08T09:44:08;23.95;;;14.27;;
30287;SDS011;17103;48.316;11.558;2024-03-08T09:46:34;21.65;;;12.38;;
30287;SDS011;17103;48.316;11.558;2024-03-08T09:49:00;23.38;;;14.68;;
30287;SDS011;17103;48.316;11.558;2024-03-08T09:51:30;22.50;;;14.30;;
30287;SDS011;17103;48.316;11.558;2024-03-08T09:54:00;24.58;;;15.85;;
30287;SDS011;17103;48.316;11.558;2024-03-08T09:56:30;24.15;;;15.95;;
30287;SDS011;17103;48.316;11.558;2024-03-08T09:59:00;24.13;;;14.93;;
30287;SDS011;17103;48.316;11.558;2024-03-08T10:01:45;22.35;;;15.27;;
30287;SDS011;17103;48.316;11.558;2024-03-08T10:04:11;21.60;;;14.27;;
30287;SDS011;17103;48.316;11.558;2024-03-08T10:06:39;22.60;;;13.82;;
30287;SDS011;17103;48.316;11.558;2024-03-08T10:09:06;25.60;;;15.85;;
30287;SDS011;17103;48.316;11.558;2024-03-08T10:11:33;24.80;;;14.52;;
30287;SDS011;17103;48.316;11.558;2024-03-08T10:14:00;21.42;;;14.55;;
30287;SDS011;17103;48.316;11.558;2024-03-08T10:16:29;20.77;;;13.75;;
30287;SDS011;17103;48.316;11.558;2024-03-08T10:18:58;23.13;;;14.27;;
30287;SDS011;17103;48.316;11.558;2024-03-08T10:21:25;24.23;;;15.35;;
30287;SDS011;17103;48.316;11.558;2024-03-08T10:23:52;21.50;;;13.65;;
30287;SDS011;17103;48.316;11.558;2024-03-08T10:26:18;21.80;;;13.27;;
30287;SDS011;17103;48.316;11.558;2024-03-08T10:28:51;21.75;;;13.35;;
30287;SDS011;17103;48.316;11.558;2024-03-08T10:31:18;19.73;;;12.57;;
30287;SDS011;17103;48.316;11.558;2024-03-08T10:33:45;21.77;;;13.35;;
30287;SDS011;17103;48.316;11.558;2024-03-08T10:36:11;21.00;;;13.40;;
30287;SDS011;17103;48.316;11.558;2024-03-08T10:38:38;24.30;;;15.13;;
30287;SDS011;17103;48.316;11.558;2024-03-08T10:41:05;19.27;;;13.00;;
30287;SDS011;17103;48.316;11.558;2024-03-08T10:43:38;17.50;;;12.27;;
30287;SDS011;17103;48.316;11.558;2024-03-08T10:49:04;21.20;;;12.98;;
30287;SDS011;17103;48.316;11.558;2024-03-08T10:51:37;22.35;;;13.50;;
30287;SDS011;17103;48.316;11.558;2024-03-08T10:54:03;19.60;;;12.75;;
30287;SDS011;17103;48.316;11.558;2024-03-08T10:56:32;23.70;;;14.02;;
30287;SDS011;17103;48.316;11.558;2024-03-08T10:58:57;19.27;;;11.73;;
30287;SDS011;17103;48.316;11.558;2024-03-08T11:01:23;21.13;;;13.55;;
30287;SDS011;17103;48.316;11.558;2024-03-08T11:03:51;19.52;;;12.23;;
30287;SDS011;17103;48.316;11.558;2024-03-08T11:06:22;17.35;;;12.15;;
30287;SDS011;17103;48.316;11.558;2024-03-08T11:08:54;16.83;;;11.73;;
30287;SDS011;17103;48.316;11.558;2024-03-08T11:13:56;19.73;;;11.60;;
30287;SDS011;17103;48.316;11.558;2024-03-08T11:18:58;18.40;;;11.10;;
30287;SDS011;17103;48.316;11.558;2024-03-08T11:21:31;16.70;;;11.32;;
30287;SDS011;17103;48.316;11.558;2024-03-08T11:24:08;18.05;;;11.40;;
30287;SDS011;17103;48.316;11.558;2024-03-08T11:26:41;17.05;;;11.25;;
30287;SDS011;17103;48.316;11.558;2024-03-08T11:32:04;17.45;;;10.80;;
30287;SDS011;17103;48.316;11.558;2024-03-08T11:34:37;15.63;;;10.48;;
30287;SDS011;17103;48.316;11.558;2024-03-08T11:37:05;19.55;;;11.55;;
30287;SDS011;17103;48.316;11.558;2024-03-08T11:39:54;16.20;;;10.27;;
30287;SDS011;17103;48.316;11.558;2024-03-08T11:42:27;15.18;;;9.52;;
30287;SDS011;17103;48.316;11.558;2024-03-08T11:44:52;15.48;;;10.55;;
30287;SDS011;17103;48.316;11.558;2024-03-08T11:47:19;15.57;;;10.05;;
30287;SDS011;17103;48.316;11.558;2024-03-08T11:49:45;14.77;;;10.02;;
30287;SDS011;17103;48.316;11.558;2024-03-08T11:52:17;17.27;;;10.65;;
30287;SDS011;17103;48.316;11.558;2024-03-08T11:54:53;15.90;;;10.88;;
30287;SDS011;17103;48.316;11.558;2024-03-08T11:57:22;13.30;;;9.25;;
30287;SDS011;17103;48.316;11.558;2024-03-08T11:59:52;13.52;;;9.98;;
30287;SDS011;17103;48.316;11.558;2024-03-08T12:02:18;12.18;;;8.68;;
30287;SDS011;17103;48.316;11.558;2024-03-08T12:04:55;14.00;;;8.25;;
30287;SDS011;17103;48.316;11.558;2024-03-08T12:07:25;12.05;;;8.27;;
30287;SDS011;17103;48.316;11.558;2024-03-08T12:12:51;13.38;;;8.75;;
30287;SDS011;17103;48.316;11.558;2024-03-08T12:15:18;12.32;;;8.48;;
30287;SDS011;17103;48.316;11.558;2024-03-08T12:17:48;11.93;;;8.73;;
30287;SDS011;17103;48.316;11.558;2024-03-08T12:22:48;11.68;;;8.70;;
30287;SDS011;17103;48.316;11.558;2024-03-08T12:25:17;11.30;;;8.30;;
30287;SDS011;17103;48.316;11.558;2024-03-08T12:27:43;12.95;;;9.00;;
30287;SDS011;17103;48.316;11.558;2024-03-08T12:30:18;11.77;;;8.32;;
30287;SDS011;17103;48.316;11.558;2024-03-08T12:32:57;11.05;;;7.65;;
30287;SDS011;17103;48.316;11.558;2024-03-08T12:35:28;13.35;;;8.57;;
30287;SDS011;17103;48.316;11.558;2024-03-08T12:37:56;10.63;;;7.85;;
30287;SDS011;17103;48.316;11.558;2024-03-08T12:40:28;10.55;;;7.32;;
30287;SDS011;17103;48.316;11.558;2024-03-08T12:42:56;9.55;;;7.57;;
30287;SDS011;17103;48.316;11.558;2024-03-08T12:45:23;11.18;;;8.30;;
30287;SDS011;17103;48.316;11.558;2024-03-08T12:47:55;10.20;;;7.93;;
30287;SDS011;17103;48.316;11.558;2024-03-08T12:50:21;10.63;;;7.20;;
30287;SDS011;17103;48.316;11.558;2024-03-08T12:52:48;8.90;;;6.35;;
30287;SDS011;17103;48.316;11.558;2024-03-08T12:55:14;9.55;;;7.10;;
30287;SDS011;17103;48.316;11.558;2024-03-08T12:57:41;9.55;;;7.13;;
30287;SDS011;17103;48.316;11.558;2024-03-08T13:00:07;10.40;;;6.72;;
30287;SDS011;17103;48.316;11.558;2024-03-08T13:02:41;11.90;;;6.43;;
30287;SDS011;17103;48.316;11.558;2024-03-08T13:05:07;8.75;;;5.80;;
30287;SDS011;17103;48.316;11.558;2024-03-08T13:07:34;7.60;;;5.72;;
30287;SDS011;17103;48.316;11.558;2024-03-08T13:10:02;9.43;;;6.63;;
30287;SDS011;17103;48.316;11.558;2024-03-08T13:12:29;8.52;;;6.13;;
30287;SDS011;17103;48.316;11.558;2024-03-08T13:14:55;9.63;;;7.22;;
30287;SDS011;17103;48.316;11.558;2024-03-08T13:17:21;10.38;;;7.13;;
30287;SDS011;17103;48.316;11.558;2024-03-08T13:19:47;9.70;;;7.47;;
30287;SDS011;17103;48.316;11.558;2024-03-08T13:22:13;11.18;;;6.45;;
30287;SDS011;17103;48.316;11.558;2024-03-08T13:24:44;7.93;;;6.05;;
30287;SDS011;17103;48.316;11.558;2024-03-08T13:27:10;9.68;;;7.05;;
30287;SDS011;17103;48.316;11.558;2024-03-08T13:29:47;8.93;;;6.60;;
30287;SDS011;17103;48.316;11.558;2024-03-08T13:32:14;9.18;;;6.43;;
30287;SDS011;17103;48.316;11.558;2024-03-08T13:34:41;10.35;;;7.25;;
30287;SDS011;17103;48.316;11.558;2024-03-08T13:37:16;9.75;;;6.70;;
30287;SDS011;17103;48.316;11.558;2024-03-08T13:39:43;9.20;;;6.60;;
30287;SDS011;17103;48.316;11.558;2024-03-08T13:42:10;9.93;;;6.97;;
30287;SDS011;17103;48.316;11.558;2024-03-08T13:44:44;8.10;;;6.70;;
30287;SDS011;17103;48.316;11.558;2024-03-08T13:47:12;10.05;;;7.28;;
30287;SDS011;17103;48.316;11.558;2024-03-08T13:49:39;9.38;;;7.03;;
30287;SDS011;17103;48.316;11.558;2024-03-08T13:52:05;11.50;;;8.52;;
30287;SDS011;17103;48.316;11.558;2024-03-08T13:54:33;12.60;;;8.32;;
30287;SDS011;17103;48.316;11.558;2024-03-08T13:57:00;11.00;;;8.05;;
30287;SDS011;17103;48.316;11.558;2024-03-08T13:59:28;9.60;;;7.78;;
30287;SDS011;17103;48.316;11.558;2024-03-08T14:01:58;9.00;;;7.07;;
30287;SDS011;17103;48.316;11.558;2024-03-08T14:04:26;10.38;;;7.18;;
30287;SDS011;17103;48.316;11.558;2024-03-08T14:06:53;16.42;;;7.43;;
30287;SDS011;17103;48.316;11.558;2024-03-08T14:09:22;9.82;;;7.38;;
30287;SDS011;17103;48.316;11.558;2024-03-08T14:11:50;9.20;;;6.72;;
30287;SDS011;17103;48.316;11.558;2024-03-08T14:14:19;8.93;;;6.50;;
30287;SDS011;17103;48.316;11.558;2024-03-08T14:16:51;9.40;;;6.82;;
30287;SDS011;17103;48.316;11.558;2024-03-08T14:19:18;10.10;;;7.68;;
30287;SDS011;17103;48.316;11.558;2024-03-08T14:21:47;9.35;;;7.05;;
30287;SDS011;17103;48.316;11.558;2024-03-08T14:24:18;9.13;;;6.20;;
30287;SDS011;17103;48.316;11.558;2024-03-08T14:26:44;11.35;;;7.47;;
30287;SDS011;17103;48.316;11.558;2024-03-08T14:29:11;10.80;;;8.20;;
30287;SDS011;17103;48.316;11.558;2024-03-08T14:31:37;10.60;;;7.72;;
30287;SDS011;17103;48.316;11.558;2024-03-08T14:34:03;11.23;;;6.95;;
30287;SDS011;17103;48.316;11.558;2024-03-08T14:36:29;10.18;;;7.10;;